createdAt,value
2023-05-23T00:01:24.937Z,95750.97
2023-05-23T00:03:53.946Z,95743.81
2023-05-23T00:06:23.702Z,95749.28
2023-05-23T00:08:50.632Z,95743.78
2023-05-23T00:11:18.988Z,95743.38
2023-05-23T00:13:45.978Z,95740.63
2023-05-23T00:16:12.694Z,95741.00
2023-05-23T00:18:43.252Z,95735.88
2023-05-23T00:21:10.144Z,95730.00
2023-05-23T00:23:36.919Z,95740.31
2023-05-23T00:26:04.936Z,95727.66
2023-05-23T00:28:31.654Z,95733.16
2023-05-23T00:30:58.480Z,95739.09
2023-05-23T00:33:26.619Z,95741.03
2023-05-23T00:35:53.290Z,95748.50
2023-05-23T00:38:20.148Z,95746.16
2023-05-23T00:40:47.544Z,95752.06
2023-05-23T00:43:14.456Z,95744.19
2023-05-23T00:45:41.634Z,95752.09
2023-05-23T00:48:09.077Z,95757.56
2023-05-23T00:50:36.231Z,95762.66
2023-05-23T00:53:03.939Z,95760.28
2023-05-23T00:55:32.479Z,95762.31
2023-05-23T00:57:59.621Z,95762.41
2023-05-23T01:00:27.775Z,95767.19
2023-05-23T01:02:55.008Z,95764.84
2023-05-23T01:05:25.248Z,95760.91
2023-05-23T01:07:53.112Z,95756.59
2023-05-23T01:10:26.052Z,95763.31
2023-05-23T01:13:14.840Z,95767.25
2023-05-23T01:16:09.703Z,95764.84
2023-05-23T01:19:18.353Z,95773.47
2023-05-23T01:21:53.388Z,95763.97
2023-05-23T01:24:40.363Z,95756.84
2023-05-23T01:27:50.473Z,95760.81
2023-05-23T01:30:20.437Z,95765.13
2023-05-23T01:32:50.768Z,95771.50
2023-05-23T01:35:26.908Z,95775.81
2023-05-23T01:37:55.841Z,95775.03
2023-05-23T01:40:25.157Z,95776.22
2023-05-23T01:42:55.241Z,95774.25
2023-05-23T01:45:22.200Z,95778.19
2023-05-23T01:47:51.294Z,95778.19
2023-05-23T01:50:18.587Z,95771.13
2023-05-23T01:52:47.562Z,95775.53
2023-05-23T01:55:18.973Z,95774.72
2023-05-23T01:57:49.802Z,95772.78
2023-05-23T02:00:17.402Z,95773.19
2023-05-23T02:02:47.505Z,95773.59
2023-05-23T02:05:16.641Z,95777.53
2023-05-23T02:07:43.408Z,95771.19
2023-05-23T02:10:10.273Z,95773.97
2023-05-23T02:12:38.122Z,95771.19
2023-05-23T02:15:05.745Z,95771.13
2023-05-23T02:17:32.730Z,95784.59
2023-05-23T02:19:59.873Z,95787.00
2023-05-23T02:22:26.609Z,95781.06
2023-05-23T02:24:53.598Z,95781.41
2023-05-23T02:27:20.341Z,95771.16
2023-05-23T02:29:47.133Z,95781.47
2023-05-23T02:32:14.074Z,95775.09
2023-05-23T02:34:40.848Z,95781.84
2023-05-23T02:37:07.990Z,95782.28
2023-05-23T02:39:37.139Z,95781.88
2023-05-23T02:42:04.865Z,95779.91
2023-05-23T02:44:32.267Z,95781.47
2023-05-23T02:46:59.066Z,95780.69
2023-05-23T02:49:25.954Z,95782.63
2023-05-23T02:51:52.892Z,95793.28
2023-05-23T02:54:19.955Z,95795.31
2023-05-23T02:56:46.929Z,95799.66
2023-05-23T02:59:13.865Z,95791.34
2023-05-23T03:01:40.776Z,95800.84
2023-05-23T03:04:07.716Z,95790.16
2023-05-23T03:06:36.880Z,95790.97
2023-05-23T03:09:04.111Z,95795.31
2023-05-23T03:11:30.955Z,95786.19
2023-05-23T03:13:59.555Z,95798.81
2023-05-23T03:16:26.505Z,95790.50
2023-05-23T03:18:53.543Z,95791.72
2023-05-23T03:21:20.301Z,95783.41
2023-05-23T03:23:47.526Z,95789.34
2023-05-23T03:26:14.261Z,95790.13
2023-05-23T03:28:41.062Z,95784.19
2023-05-23T03:31:07.758Z,95786.97
2023-05-23T03:33:34.489Z,95778.69
2023-05-23T03:36:01.277Z,95780.28
2023-05-23T03:38:28.045Z,95783.84
2023-05-23T03:40:54.853Z,95785.84
2023-05-23T03:43:21.618Z,95791.78
2023-05-23T03:45:48.739Z,95779.53
2023-05-23T03:48:17.530Z,95780.31
2023-05-23T03:50:44.624Z,95793.41
2023-05-23T03:53:12.093Z,95801.34
2023-05-23T03:55:42.607Z,95794.25
2023-05-23T03:58:09.696Z,95786.34
2023-05-23T04:00:37.143Z,95796.25
2023-05-23T04:03:06.939Z,95796.25
2023-05-23T04:05:33.727Z,95797.44
2023-05-23T04:08:01.657Z,95799.44
2023-05-23T04:10:28.973Z,95804.56
2023-05-23T04:12:57.076Z,95798.22
2023-05-23T04:15:24.852Z,95799.81
2023-05-23T04:18:03.767Z,95795.06
2023-05-23T04:20:31.156Z,95793.06
2023-05-23T04:22:57.931Z,95797.41
2023-05-23T04:25:26.405Z,95785.94
2023-05-23T04:28:06.604Z,95789.47
2023-05-23T04:30:33.746Z,95793.78
2023-05-23T04:33:00.572Z,95799.34
2023-05-23T04:35:29.071Z,95785.44
2023-05-23T04:37:56.873Z,95785.06
2023-05-23T04:40:25.814Z,95789.00
2023-05-23T04:43:16.493Z,95797.31
2023-05-23T04:45:56.039Z,95776.66
2023-05-23T04:48:34.924Z,95778.97
2023-05-23T04:51:06.145Z,95792.44
2023-05-23T04:53:33.025Z,95775.38
2023-05-23T04:55:59.774Z,95782.09
2023-05-23T04:58:26.666Z,95786.34
2023-05-23T05:00:57.129Z,95785.84
2023-05-23T05:03:25.209Z,95795.34
2023-05-23T05:05:52.168Z,95794.91
2023-05-23T05:08:20.103Z,95803.97
2023-05-23T05:10:47.143Z,95799.59
2023-05-23T05:13:15.921Z,95811.41
2023-05-23T05:15:47.923Z,95805.38
2023-05-23T05:18:14.916Z,95809.69
2023-05-23T05:20:42.180Z,95816.03
2023-05-23T05:23:09.915Z,95812.03
2023-05-23T05:25:38.299Z,95815.13
2023-05-23T05:28:06.085Z,95816.94
2023-05-23T05:30:37.558Z,95814.81
2023-05-23T05:33:06.410Z,95818.56
2023-05-23T05:35:34.376Z,95812.47
2023-05-23T05:38:05.475Z,95811.56
2023-05-23T05:40:32.856Z,95825.22
2023-05-23T05:43:01.393Z,95820.16
2023-05-23T05:45:28.190Z,95816.31
2023-05-23T05:47:55.090Z,95821.63
2023-05-23T05:50:23.824Z,95818.25
2023-05-23T05:52:51.273Z,95813.31
2023-05-23T05:55:18.100Z,95810.63
2023-05-23T05:57:48.479Z,95814.41
2023-05-23T06:00:19.212Z,95820.25
2023-05-23T06:02:52.068Z,95819.59
2023-05-23T06:05:39.460Z,95821.47
2023-05-23T06:08:06.574Z,95824.59
2023-05-23T06:10:33.587Z,95826.72
2023-05-23T06:13:00.458Z,95827.53
2023-05-23T06:15:27.476Z,95827.53
2023-05-23T06:17:54.260Z,95819.19
2023-05-23T06:20:22.058Z,95814.97
2023-05-23T06:22:49.272Z,95817.13
2023-05-23T06:25:16.372Z,95817.72
2023-05-23T06:27:44.908Z,95823.91
2023-05-23T06:30:12.240Z,95822.56
2023-05-23T06:32:40.627Z,95815.38
2023-05-23T06:35:07.877Z,95819.81
2023-05-23T06:37:35.192Z,95830.50
2023-05-23T06:40:02.143Z,95827.19
2023-05-23T06:42:28.796Z,95819.97
2023-05-23T06:45:19.069Z,95819.66
2023-05-23T06:47:48.054Z,95827.94
2023-05-23T06:50:14.872Z,95815.88
2023-05-23T06:52:42.920Z,95824.34
2023-05-23T06:55:10.273Z,95816.22
2023-05-23T06:57:39.398Z,95830.72
2023-05-23T07:00:07.008Z,95828.44
2023-05-23T07:02:39.883Z,95828.00
2023-05-23T07:05:07.288Z,95827.09
2023-05-23T07:07:52.330Z,95825.38
2023-05-23T07:10:19.961Z,95832.44
2023-05-23T07:12:48.506Z,95824.72
2023-05-23T07:15:16.701Z,95827.97
2023-05-23T07:18:09.673Z,95823.38
2023-05-23T07:20:36.585Z,95826.66
2023-05-23T07:23:11.447Z,95829.22
2023-05-23T07:25:50.142Z,95837.44
2023-05-23T07:28:29.443Z,95834.16
2023-05-23T07:30:58.375Z,95832.00
2023-05-23T07:33:25.497Z,95829.91
2023-05-23T07:36:00.927Z,95834.28
2023-05-23T07:38:27.673Z,95834.91
2023-05-23T07:41:03.079Z,95839.63
2023-05-23T07:43:37.433Z,95841.06
2023-05-23T07:46:04.320Z,95839.94
2023-05-23T07:48:32.134Z,95842.84
2023-05-23T07:50:59.264Z,95850.22
2023-05-23T07:53:26.381Z,95852.16
2023-05-23T07:55:53.181Z,95855.28
2023-05-23T07:58:22.164Z,95854.31
2023-05-23T08:00:51.140Z,95858.44
2023-05-23T08:03:39.497Z,95858.44
2023-05-23T08:06:13.132Z,95859.75
2023-05-23T08:08:39.863Z,95863.72
2023-05-23T08:11:08.462Z,95863.78
2023-05-23T08:13:41.095Z,95871.91
2023-05-23T08:16:31.027Z,95866.69
2023-05-23T08:18:58.311Z,95859.22
2023-05-23T08:21:25.055Z,95859.91
2023-05-23T08:23:52.126Z,95864.69
2023-05-23T08:26:19.144Z,95872.25
2023-05-23T08:28:47.508Z,95863.34
2023-05-23T08:31:14.806Z,95856.31
2023-05-23T08:33:41.778Z,95869.03
2023-05-23T08:36:08.447Z,95870.69
2023-05-23T08:38:35.329Z,95863.66
2023-05-23T08:41:20.135Z,95860.25
2023-05-23T08:43:49.328Z,95860.59
2023-05-23T08:46:23.196Z,95861.63
2023-05-23T08:48:54.793Z,95869.59
2023-05-23T08:51:26.267Z,95869.28
2023-05-23T08:53:56.446Z,95867.56
2023-05-23T08:56:28.526Z,95878.69
2023-05-23T08:58:57.142Z,95873.31
2023-05-23T09:01:26.519Z,95876.69
2023-05-23T09:03:56.384Z,95881.16
2023-05-23T09:06:29.544Z,95879.50
2023-05-23T09:08:57.222Z,95881.09
2023-05-23T09:11:25.433Z,95881.91
2023-05-23T09:13:52.582Z,95881.81
2023-05-23T09:16:20.567Z,95885.63
2023-05-23T09:18:56.106Z,95880.53
2023-05-23T09:21:25.375Z,95885.84
2023-05-23T09:24:14.751Z,95889.88
2023-05-23T09:26:42.366Z,95891.09
2023-05-23T09:29:09.184Z,95890.06
2023-05-23T09:31:35.952Z,95886.06
2023-05-23T09:34:02.943Z,95887.50
2023-05-23T09:36:30.601Z,95886.44
2023-05-23T09:38:57.521Z,95889.25
2023-05-23T09:41:25.241Z,95892.63
2023-05-23T09:43:54.178Z,95880.81
2023-05-23T09:46:22.364Z,95892.06
2023-05-23T09:48:52.197Z,95892.06
2023-05-23T09:51:21.878Z,95892.00
2023-05-23T09:53:49.706Z,95882.09
2023-05-23T09:56:17.540Z,95885.28
2023-05-23T09:58:48.253Z,95881.63
2023-05-23T10:01:16.353Z,95871.91
2023-05-23T10:03:51.183Z,95869.16
2023-05-23T10:06:25.656Z,95870.28
2023-05-23T10:09:01.897Z,95864.97
2023-05-23T10:11:34.771Z,95861.81
2023-05-23T10:14:05.649Z,95868.22
2023-05-23T10:16:59.293Z,95867.44
2023-05-23T10:19:35.961Z,95858.00
2023-05-23T10:22:06.989Z,95856.53
2023-05-23T10:24:35.699Z,95862.84
2023-05-23T10:27:03.644Z,95867.56
2023-05-23T10:29:31.392Z,95862.41
2023-05-23T10:31:59.200Z,95852.00
2023-05-23T10:34:32.200Z,95838.50
2023-05-23T10:37:10.484Z,95847.16
2023-05-23T10:39:44.533Z,95847.09
2023-05-23T10:42:32.454Z,95864.19
2023-05-23T10:45:22.276Z,95867.63
2023-05-23T10:47:50.315Z,95865.69
2023-05-23T10:50:34.576Z,95871.06
2023-05-23T10:53:03.326Z,95874.22
2023-05-23T10:55:35.245Z,95875.91
2023-05-23T10:58:11.498Z,95878.00
2023-05-23T11:00:38.628Z,95875.72
2023-05-23T11:03:09.177Z,95881.41
2023-05-23T11:05:38.749Z,95888.09
2023-05-23T11:08:14.015Z,95884.56
2023-05-23T11:11:01.205Z,95870.97
2023-05-23T11:13:55.816Z,95873.56
2023-05-23T11:16:32.761Z,95865.53
2023-05-23T11:19:18.177Z,95859.47
2023-05-23T11:21:46.532Z,95863.25
2023-05-23T11:24:13.250Z,95862.59
2023-05-23T11:26:40.008Z,95867.56
2023-05-23T11:29:10.050Z,95865.84
2023-05-23T11:31:40.752Z,95862.59
2023-05-23T11:34:07.952Z,95856.16
2023-05-23T11:36:35.397Z,95863.25
2023-05-23T11:39:03.854Z,95849.25
2023-05-23T11:41:31.433Z,95842.03
2023-05-23T11:43:59.867Z,95844.13
2023-05-23T11:46:26.948Z,95840.66
2023-05-23T11:48:55.096Z,95854.47
2023-05-23T11:51:22.178Z,95844.84
2023-05-23T11:53:49.367Z,95847.88
2023-05-23T11:56:19.081Z,95847.97
2023-05-23T11:58:45.879Z,95855.63
2023-05-23T12:01:13.859Z,95863.22
2023-05-23T12:03:48.835Z,95869.03
2023-05-23T12:06:16.741Z,95879.72
2023-05-23T12:08:43.607Z,95887.84
2023-05-23T12:11:11.845Z,95888.38
2023-05-23T12:13:42.245Z,95895.66
2023-05-23T12:16:09.571Z,95890.72
2023-05-23T12:18:38.115Z,95900.88
2023-05-23T12:21:08.073Z,95897.19
2023-05-23T12:23:36.439Z,95894.56
2023-05-23T12:26:07.454Z,95903.81
2023-05-23T12:28:38.702Z,95890.91
2023-05-23T12:31:10.632Z,95892.06
2023-05-23T12:33:44.191Z,95891.72
2023-05-23T12:36:12.043Z,95894.50
2023-05-23T12:38:40.818Z,95887.75
2023-05-23T12:41:09.676Z,95900.53
2023-05-23T12:43:51.725Z,95892.41
2023-05-23T12:46:19.334Z,95899.16
2023-05-23T12:48:46.061Z,95895.28
2023-05-23T12:51:13.136Z,95891.31
2023-05-23T12:53:39.970Z,95890.19
2023-05-23T12:56:07.034Z,95881.91
2023-05-23T12:58:34.385Z,95888.88
2023-05-23T13:01:02.612Z,95900.81
2023-05-23T13:03:33.553Z,95894.09
2023-05-23T13:06:00.787Z,95904.47
2023-05-23T13:08:27.728Z,95907.81
2023-05-23T13:10:54.704Z,95915.28
2023-05-23T13:13:22.620Z,95916.84
2023-05-23T13:15:51.149Z,95914.19
2023-05-23T13:18:18.515Z,95908.06
2023-05-23T13:20:46.649Z,95904.59
2023-05-23T13:23:14.038Z,95900.38
2023-05-23T13:25:41.214Z,95898.72
2023-05-23T13:28:08.194Z,95896.63
2023-05-23T13:30:34.952Z,95906.94
2023-05-23T13:33:01.918Z,95901.50
2023-05-23T13:35:28.983Z,95900.44
2023-05-23T13:37:55.804Z,95896.72
2023-05-23T13:40:23.185Z,95892.41
2023-05-23T13:42:51.571Z,95891.75
2023-05-23T13:45:19.792Z,95888.59
2023-05-23T13:47:47.425Z,95879.72
2023-05-23T13:50:14.433Z,95881.78
2023-05-23T13:52:44.173Z,95893.44
2023-05-23T13:55:12.976Z,95894.16
2023-05-23T13:57:39.700Z,95893.38
2023-05-23T14:00:09.052Z,95903.00
2023-05-23T14:02:36.120Z,95903.09
2023-05-23T14:05:03.244Z,95903.97
2023-05-23T14:07:30.038Z,95907.19
2023-05-23T14:09:57.666Z,95905.88
2023-05-23T14:12:24.484Z,95911.75
2023-05-23T14:14:51.152Z,95915.84
2023-05-23T14:17:18.584Z,95916.88
2023-05-23T14:19:46.289Z,95908.47
2023-05-23T14:22:13.170Z,95928.16
2023-05-23T14:24:39.930Z,95924.13
2023-05-23T14:27:10.228Z,95927.81
2023-05-23T14:29:37.908Z,95924.22
2023-05-23T14:32:04.907Z,95912.00
2023-05-23T14:34:32.089Z,95916.44
2023-05-23T14:36:58.959Z,95911.66
2023-05-23T14:39:25.738Z,95923.56
2023-05-23T14:41:52.541Z,95916.28
2023-05-23T14:44:19.570Z,95918.41
2023-05-23T14:46:50.084Z,95925.69
2023-05-23T14:49:19.173Z,95922.97
2023-05-23T14:51:51.393Z,95927.25
2023-05-23T14:54:19.304Z,95933.38
2023-05-23T14:56:46.172Z,95924.09
2023-05-23T14:59:13.058Z,95922.50
2023-05-23T15:01:40.596Z,95924.50
2023-05-23T15:04:09.678Z,95933.69
2023-05-23T15:06:38.722Z,95938.78
2023-05-23T15:09:05.752Z,95937.88
2023-05-23T15:11:34.947Z,95940.38
2023-05-23T15:14:01.885Z,95942.13
2023-05-23T15:16:32.918Z,95946.84
2023-05-23T15:18:59.925Z,95943.88
2023-05-23T15:21:27.011Z,95942.44
2023-05-23T15:23:54.412Z,95952.84
2023-05-23T15:26:21.173Z,95946.97
2023-05-23T15:28:47.966Z,95947.81
2023-05-23T15:31:14.736Z,95949.72
2023-05-23T15:33:41.700Z,95944.50
2023-05-23T15:36:08.586Z,95949.72
2023-05-23T15:38:35.331Z,95942.53
2023-05-23T15:41:03.193Z,95947.03
2023-05-23T15:43:30.029Z,95946.81
2023-05-23T15:45:56.918Z,95948.81
2023-05-23T15:48:23.787Z,95942.16
2023-05-23T15:50:50.500Z,95949.03
2023-05-23T15:53:17.348Z,95944.88
2023-05-23T15:55:44.238Z,95938.00
2023-05-23T15:58:11.270Z,95939.50
2023-05-23T16:00:38.225Z,95932.41
2023-05-23T16:03:05.163Z,95939.94
2023-05-23T16:05:31.937Z,95954.25
2023-05-23T16:07:58.740Z,95972.19
2023-05-23T16:10:25.649Z,95962.28
2023-05-23T16:12:52.483Z,95958.59
2023-05-23T16:15:19.500Z,95967.94
2023-05-23T16:17:46.326Z,95972.63
2023-05-23T16:20:13.636Z,95972.63
2023-05-23T16:22:41.392Z,95969.19
2023-05-23T16:25:10.697Z,95970.91
2023-05-23T16:27:37.585Z,95974.53
2023-05-23T16:30:06.293Z,95972.19
2023-05-23T16:32:33.959Z,95977.13
2023-05-23T16:35:01.058Z,95985.69
2023-05-23T16:37:27.727Z,95979.00
2023-05-23T16:39:54.525Z,95982.44
2023-05-23T16:42:21.356Z,95979.75
2023-05-23T16:44:48.097Z,95973.59
2023-05-23T16:47:14.930Z,95972.50
2023-05-23T16:49:41.576Z,95956.28
2023-05-23T16:52:08.314Z,95969.50
2023-05-23T16:54:35.250Z,95969.94
2023-05-23T16:57:02.189Z,95969.16
2023-05-23T16:59:29.954Z,95969.94
2023-05-23T17:01:57.124Z,95967.13
2023-05-23T17:04:24.197Z,95973.84
2023-05-23T17:06:51.267Z,95973.41
2023-05-23T17:09:18.350Z,95961.91
2023-05-23T17:11:45.499Z,95955.50
2023-05-23T17:14:12.825Z,95954.72
2023-05-23T17:16:39.719Z,95960.34
2023-05-23T17:19:07.691Z,95950.78
2023-05-23T17:21:34.614Z,95946.00
2023-05-23T17:24:02.416Z,95948.75
2023-05-23T17:26:29.087Z,95960.28
2023-05-23T17:28:56.063Z,95961.44
2023-05-23T17:31:23.000Z,95968.59
2023-05-23T17:33:49.987Z,95971.41
2023-05-23T17:36:16.694Z,95964.69
2023-05-23T17:38:43.391Z,95963.53
2023-05-23T17:41:10.114Z,95969.16
2023-05-23T17:43:36.873Z,95967.59
2023-05-23T17:46:03.769Z,95971.13
2023-05-23T17:48:45.925Z,95974.75
2023-05-23T17:51:14.453Z,95974.72
2023-05-23T17:53:41.834Z,95973.97
2023-05-23T17:56:09.465Z,95972.03
2023-05-23T17:58:37.724Z,95967.66
2023-05-23T18:01:05.619Z,95976.00
2023-05-23T18:03:32.462Z,95972.84
2023-05-23T18:05:59.192Z,95959.00
2023-05-23T18:08:25.947Z,95967.72
2023-05-23T18:10:52.703Z,95966.13
2023-05-23T18:13:19.437Z,95965.75
2023-05-23T18:15:46.220Z,95961.78
2023-05-23T18:18:12.986Z,95969.31
2023-05-23T18:20:40.204Z,95975.66
2023-05-23T18:23:07.791Z,95978.84
2023-05-23T18:25:34.682Z,95978.47
2023-05-23T18:28:02.255Z,95978.84
2023-05-23T18:30:29.439Z,95989.53
2023-05-23T18:32:56.582Z,95988.38
2023-05-23T18:35:25.645Z,95989.16
2023-05-23T18:37:53.944Z,96002.22
2023-05-23T18:40:21.834Z,96006.59
2023-05-23T18:42:50.254Z,96009.34
2023-05-23T18:45:17.056Z,96007.34
2023-05-23T18:47:44.673Z,96016.09
2023-05-23T18:50:13.013Z,96020.03
2023-05-23T18:52:39.906Z,96027.94
2023-05-23T18:55:07.201Z,96034.28
2023-05-23T18:57:33.919Z,96036.31
2023-05-23T19:00:00.786Z,96038.66
2023-05-23T19:02:27.759Z,96038.22
2023-05-23T19:04:54.562Z,96046.56
2023-05-23T19:07:21.338Z,96041.78
2023-05-23T19:09:48.405Z,96044.56
2023-05-23T19:12:15.148Z,96056.81
2023-05-23T19:14:41.875Z,96058.03
2023-05-23T19:17:09.595Z,96059.59
2023-05-23T19:19:37.462Z,96066.72
2023-05-23T19:22:04.753Z,96065.63
2023-05-23T19:24:32.147Z,96073.94
2023-05-23T19:26:58.946Z,96077.13
2023-05-23T19:29:26.775Z,96079.50
2023-05-23T19:31:54.750Z,96082.31
2023-05-23T19:34:21.825Z,96088.63
2023-05-23T19:36:49.039Z,96083.50
2023-05-23T19:39:16.094Z,96092.19
2023-05-23T19:41:42.973Z,96099.31
2023-05-23T19:44:09.871Z,96093.78
2023-05-23T19:46:36.751Z,96098.16
2023-05-23T19:49:03.637Z,96099.75
2023-05-23T19:51:30.401Z,96105.28
2023-05-23T19:53:57.141Z,96114.81
2023-05-23T19:56:25.397Z,96114.41
2023-05-23T19:58:52.130Z,96108.88
2023-05-23T20:01:18.912Z,96120.75
2023-05-23T20:03:45.678Z,96124.72
2023-05-23T20:06:12.668Z,96123.91
2023-05-23T20:08:39.399Z,96125.53
2023-05-23T20:11:06.153Z,96131.84
2023-05-23T20:13:32.861Z,96136.97
2023-05-23T20:15:59.687Z,96134.63
2023-05-23T20:18:26.440Z,96120.75
2023-05-23T20:20:53.601Z,96132.63
2023-05-23T20:23:20.598Z,96136.19
2023-05-23T20:25:48.527Z,96135.00
2023-05-23T20:28:15.263Z,96148.47
2023-05-23T20:30:42.277Z,96140.56
2023-05-23T20:33:09.267Z,96146.47
2023-05-23T20:35:36.715Z,96152.41
2023-05-23T20:38:03.676Z,96156.38
2023-05-23T20:40:33.602Z,96154.38
2023-05-23T20:43:04.707Z,96153.19
2023-05-23T20:45:32.932Z,96161.09
2023-05-23T20:48:00.034Z,96161.53
2023-05-23T20:50:26.932Z,96161.91
2023-05-23T20:52:54.316Z,96173.00
2023-05-23T20:55:22.389Z,96155.16
2023-05-23T20:57:49.242Z,96169.44
2023-05-23T21:00:18.209Z,96172.63
2023-05-23T21:02:45.802Z,96167.44
2023-05-23T21:05:12.755Z,96184.88
2023-05-23T21:07:39.761Z,96175.78
2023-05-23T21:10:06.936Z,96179.31
2023-05-23T21:12:33.670Z,96173.78
2023-05-23T21:15:00.779Z,96183.28
2023-05-23T21:17:27.589Z,96181.69
2023-05-23T21:19:54.372Z,96182.44
2023-05-23T21:22:21.125Z,96180.88
2023-05-23T21:24:47.942Z,96185.22
2023-05-23T21:27:14.621Z,96186.78
2023-05-23T21:29:41.975Z,96194.72
2023-05-23T21:32:08.775Z,96184.41
2023-05-23T21:34:35.513Z,96188.75
2023-05-23T21:37:02.313Z,96185.59
2023-05-23T21:39:39.118Z,96191.53
2023-05-23T21:42:10.143Z,96195.06
2023-05-23T21:44:38.246Z,96192.28
2023-05-23T21:47:07.091Z,96195.06
2023-05-23T21:49:35.419Z,96190.28
2023-05-23T21:52:02.707Z,96193.75
2023-05-23T21:54:29.579Z,96194.59
2023-05-23T21:56:56.708Z,96190.25
2023-05-23T21:59:23.922Z,96193.00
2023-05-23T22:01:50.914Z,96197.34
2023-05-23T22:04:20.137Z,96196.53
2023-05-23T22:06:47.182Z,96194.94
2023-05-23T22:09:15.352Z,96196.53
2023-05-23T22:11:42.173Z,96198.91
2023-05-23T22:14:09.158Z,96193.75
2023-05-23T22:16:41.694Z,96191.78
2023-05-23T22:19:10.369Z,96198.09
2023-05-23T22:21:37.501Z,96194.16
2023-05-23T22:24:04.990Z,96191.00
2023-05-23T22:26:32.166Z,96187.84
2023-05-23T22:28:59.285Z,96187.44
2023-05-23T22:31:26.486Z,96186.63
2023-05-23T22:33:53.344Z,96182.25
2023-05-23T22:36:22.081Z,96187.81
2023-05-23T22:38:48.872Z,96187.41
2023-05-23T22:41:15.579Z,96182.22
2023-05-23T22:43:42.553Z,96181.47
2023-05-23T22:46:09.450Z,96182.28
2023-05-23T22:48:36.665Z,96181.47
2023-05-23T22:51:04.001Z,96182.22
2023-05-23T22:53:31.189Z,96184.56
2023-05-23T22:55:57.989Z,96188.53
2023-05-23T22:58:24.804Z,96190.91
2023-05-23T23:00:51.943Z,96183.00
2023-05-23T23:03:19.033Z,96191.72
2023-05-23T23:05:46.436Z,96185.38
2023-05-23T23:08:13.232Z,96186.13
2023-05-23T23:10:41.488Z,96184.03
2023-05-23T23:13:08.589Z,96188.38
2023-05-23T23:15:36.840Z,96188.78
2023-05-23T23:18:05.982Z,96187.97
2023-05-23T23:20:33.276Z,96187.56
2023-05-23T23:23:00.344Z,96182.81
2023-05-23T23:25:27.053Z,96184.00
2023-05-23T23:27:53.755Z,96184.75
2023-05-23T23:30:20.840Z,96181.19
2023-05-23T23:32:47.529Z,96181.22
2023-05-23T23:35:14.428Z,96184.75
2023-05-23T23:37:41.319Z,96183.16
2023-05-23T23:40:08.858Z,96187.88
2023-05-23T23:42:35.738Z,96187.47
2023-05-23T23:45:02.791Z,96178.00
2023-05-23T23:47:29.692Z,96180.00
2023-05-23T23:49:56.419Z,96174.81
2023-05-23T23:52:23.283Z,96175.56
2023-05-23T23:54:49.940Z,96170.81
2023-05-23T23:57:16.766Z,96175.53
2023-05-23T23:59:43.877Z,96173.13
